createdAt,value
2019-01-13T00:00:16.447Z,97.32
2019-01-13T00:01:16.424Z,97.53
2019-01-13T00:02:16.473Z,98.05
2019-01-13T00:03:16.412Z,97.84
2019-01-13T00:04:16.411Z,98.15
2019-01-13T00:05:16.397Z,98.05
2019-01-13T00:06:16.363Z,97.01
2019-01-13T00:07:16.358Z,97.22
2019-01-13T00:08:16.347Z,97.01
2019-01-13T00:09:16.361Z,96.91
2019-01-13T00:10:16.319Z,96.49
2019-01-13T00:11:16.340Z,96.91
2019-01-13T00:12:16.318Z,97.11
2019-01-13T00:13:16.296Z,97.01
2019-01-13T00:14:16.278Z,96.70
2019-01-13T00:15:16.272Z,97.01
2019-01-13T00:16:16.257Z,96.80
2019-01-13T00:17:16.262Z,96.70
2019-01-13T00:18:16.245Z,97.32
2019-01-13T00:19:16.220Z,96.59
2019-01-13T00:20:16.249Z,96.49
2019-01-13T00:21:16.204Z,96.80
2019-01-13T00:22:16.193Z,97.01
2019-01-13T00:23:16.188Z,97.63
2019-01-13T00:24:16.171Z,97.42
2019-01-13T00:25:16.155Z,97.22
2019-01-13T00:26:16.144Z,97.11
2019-01-13T00:27:16.129Z,96.80
2019-01-13T00:28:16.148Z,96.70
2019-01-13T00:29:16.116Z,96.80
2019-01-13T00:30:19.499Z,96.49
2019-01-13T00:31:16.094Z,96.91
2019-01-13T00:32:16.070Z,96.70
2019-01-13T00:33:16.088Z,96.49
2019-01-13T00:34:16.053Z,96.64
2019-01-13T00:35:16.663Z,96.59
2019-01-13T00:36:16.035Z,96.59
2019-01-13T00:37:16.031Z,96.39
2019-01-13T00:38:16.018Z,96.49
2019-01-13T00:39:16.049Z,96.39
2019-01-13T00:40:16.019Z,96.39
2019-01-13T00:41:15.970Z,96.44
2019-01-13T00:42:15.989Z,96.44
2019-01-13T00:43:15.948Z,96.49
2019-01-13T00:44:15.964Z,96.49
2019-01-13T00:45:15.934Z,96.64
2019-01-13T00:46:15.935Z,96.80
2019-01-13T00:47:15.904Z,95.67
2019-01-13T00:48:15.915Z,95.25
2019-01-13T00:49:15.895Z,95.61
2019-01-13T00:50:15.872Z,95.46
2019-01-13T00:51:15.877Z,95.56
2019-01-13T00:52:15.858Z,95.36
2019-01-13T00:53:15.842Z,94.73
2019-01-13T00:54:15.846Z,94.73
2019-01-13T00:55:15.865Z,94.84
2019-01-13T00:56:15.835Z,95.67
2019-01-13T00:57:15.795Z,95.56
2019-01-13T00:58:15.783Z,94.89
2019-01-13T00:59:15.785Z,95.36
2019-01-13T01:00:15.801Z,95.29
2019-01-13T01:01:15.773Z,96.23
2019-01-13T01:02:15.733Z,95.92
2019-01-13T01:03:15.753Z,95.61
2019-01-13T01:04:15.712Z,95.50
2019-01-13T01:05:15.707Z,95.71
2019-01-13T01:06:15.744Z,95.50
2019-01-13T01:07:15.677Z,95.71
2019-01-13T01:08:15.667Z,96.85
2019-01-13T01:09:15.655Z,96.75
2019-01-13T01:10:15.661Z,96.44
2019-01-13T01:11:15.686Z,96.44
2019-01-13T01:12:15.679Z,96.44
2019-01-13T01:13:15.623Z,96.48
2019-01-13T01:14:15.601Z,96.44
2019-01-13T01:15:15.594Z,96.54
2019-01-13T01:16:15.604Z,96.44
2019-01-13T01:17:15.600Z,96.79
2019-01-13T01:18:15.564Z,96.79
2019-01-13T01:19:15.543Z,96.95
2019-01-13T01:20:15.534Z,96.69
2019-01-13T01:21:15.551Z,96.37
2019-01-13T01:22:15.519Z,96.85
2019-01-13T01:23:15.503Z,96.95
2019-01-13T01:24:15.530Z,96.79
2019-01-13T01:25:15.478Z,96.58
2019-01-13T01:26:15.482Z,96.58
2019-01-13T01:27:15.460Z,96.64
2019-01-13T01:28:15.464Z,96.54
2019-01-13T01:29:15.436Z,96.58
2019-01-13T01:30:15.426Z,96.33
2019-01-13T01:31:15.430Z,96.44
2019-01-13T01:32:15.431Z,96.44
2019-01-13T01:33:15.400Z,96.48
2019-01-13T01:34:15.395Z,96.33
2019-01-13T01:35:15.368Z,96.33
2019-01-13T01:36:15.392Z,96.64
2019-01-13T01:37:15.340Z,96.54
2019-01-13T01:38:15.343Z,96.75
2019-01-13T01:39:15.338Z,95.92
2019-01-13T01:40:15.318Z,95.81
2019-01-13T01:41:15.301Z,95.61
2019-01-13T01:42:15.316Z,95.29
2019-01-13T01:43:15.290Z,95.61
2019-01-13T01:44:15.280Z,95.29
2019-01-13T01:45:15.250Z,95.25
2019-01-13T01:46:15.241Z,95.19
2019-01-13T01:47:15.304Z,94.78
2019-01-13T01:48:15.236Z,95.19
2019-01-13T01:49:15.204Z,94.89
2019-01-13T01:50:15.208Z,95.61
2019-01-13T01:51:15.192Z,94.68
2019-01-13T01:52:15.216Z,95.50
2019-01-13T01:53:15.160Z,95.40
2019-01-13T01:54:15.151Z,95.09
2019-01-13T01:55:15.161Z,95.65
2019-01-13T01:56:15.135Z,95.75
2019-01-13T01:57:15.118Z,95.34
2019-01-13T01:58:15.175Z,95.44
2019-01-13T01:59:15.109Z,95.75
2019-01-13T02:00:15.095Z,95.96
2019-01-13T02:01:15.079Z,95.65
2019-01-13T02:02:15.064Z,95.71
2019-01-13T02:03:15.067Z,95.81
2019-01-13T02:04:15.101Z,95.75
2019-01-13T02:05:15.031Z,95.81
2019-01-13T02:06:15.059Z,95.92
2019-01-13T02:07:15.042Z,95.65
2019-01-13T02:08:15.021Z,94.89
2019-01-13T02:09:14.990Z,94.89
2019-01-13T02:10:14.974Z,95.65
2019-01-13T02:11:14.961Z,95.40
2019-01-13T02:12:14.994Z,95.65
2019-01-13T02:13:14.999Z,95.61
2019-01-13T02:14:14.945Z,95.40
2019-01-13T02:15:14.923Z,95.71
2019-01-13T02:16:14.909Z,95.61
2019-01-13T02:17:14.905Z,95.44
2019-01-13T02:18:14.889Z,95.71
2019-01-13T02:19:14.903Z,96.69
2019-01-13T02:20:14.860Z,96.17
2019-01-13T02:21:14.844Z,95.75
2019-01-13T02:22:14.832Z,95.92
2019-01-13T02:23:14.847Z,96.27
2019-01-13T02:24:14.807Z,96.37
2019-01-13T02:25:14.810Z,96.48
2019-01-13T02:26:14.799Z,96.44
2019-01-13T02:27:14.770Z,96.54
2019-01-13T02:28:14.783Z,96.69
2019-01-13T02:29:14.775Z,96.64
2019-01-13T02:30:14.768Z,96.64
2019-01-13T02:31:14.751Z,96.75
2019-01-13T02:32:14.743Z,97.06
2019-01-13T02:33:14.778Z,97.16
2019-01-13T02:34:14.731Z,97.41
2019-01-13T02:35:14.714Z,97.36
2019-01-13T02:36:14.698Z,97.20
2019-01-13T02:37:14.672Z,97.06
2019-01-13T02:38:14.650Z,97.06
2019-01-13T02:39:14.655Z,97.06
2019-01-13T02:40:14.648Z,97.16
2019-01-13T02:41:14.628Z,97.16
2019-01-13T02:42:14.617Z,97.16
2019-01-13T02:43:14.600Z,97.26
2019-01-13T02:44:14.612Z,97.16
2019-01-13T02:45:14.588Z,96.75
2019-01-13T02:46:14.625Z,96.54
2019-01-13T02:47:14.548Z,96.75
2019-01-13T02:48:14.567Z,96.75
2019-01-13T02:49:14.570Z,97.06
2019-01-13T02:50:14.531Z,96.54
2019-01-13T02:51:14.515Z,96.85
2019-01-13T02:52:14.534Z,97.06
2019-01-13T02:53:14.486Z,96.75
2019-01-13T02:54:14.467Z,96.75
2019-01-13T02:55:14.472Z,96.75
2019-01-13T02:56:14.453Z,96.54
2019-01-13T02:57:14.433Z,97.36
2019-01-13T02:58:14.445Z,97.16
2019-01-13T02:59:14.416Z,97.16
2019-01-13T03:00:14.429Z,97.26
2019-01-13T03:01:14.395Z,97.26
2019-01-13T03:02:14.398Z,96.54
2019-01-13T03:03:14.391Z,96.54
2019-01-13T03:04:14.367Z,96.75
2019-01-13T03:05:14.378Z,96.75
2019-01-13T03:06:14.346Z,96.64
2019-01-13T03:07:14.323Z,96.44
2019-01-13T03:08:14.324Z,96.44
2019-01-13T03:09:14.306Z,96.44
2019-01-13T03:10:14.314Z,96.54
2019-01-13T03:11:14.295Z,96.54
2019-01-13T03:12:14.277Z,96.79
2019-01-13T03:13:14.275Z,96.85
2019-01-13T03:14:14.255Z,97.47
2019-01-13T03:15:19.649Z,97.26
2019-01-13T03:16:15.240Z,97.41
2019-01-13T03:17:14.210Z,97.26
2019-01-13T03:18:14.217Z,97.36
2019-01-13T03:19:14.198Z,97.06
2019-01-13T03:20:14.181Z,97.16
2019-01-13T03:21:14.197Z,97.16
2019-01-13T03:22:14.166Z,97.57
2019-01-13T03:23:14.150Z,97.78
2019-01-13T03:24:14.139Z,97.67
2019-01-13T03:25:14.130Z,97.16
2019-01-13T03:26:14.140Z,97.16
2019-01-13T03:27:14.109Z,97.36
2019-01-13T03:28:14.105Z,97.36
2019-01-13T03:29:14.126Z,97.78
2019-01-13T03:30:14.090Z,97.78
2019-01-13T03:31:14.081Z,97.57
2019-01-13T03:32:14.077Z,97.63
2019-01-13T03:33:14.053Z,97.16
2019-01-13T03:34:14.031Z,97.26
2019-01-13T03:35:14.014Z,97.06
2019-01-13T03:36:14.022Z,96.75
2019-01-13T03:37:14.004Z,96.75
2019-01-13T03:38:13.993Z,96.70
2019-01-13T03:39:13.973Z,96.39
2019-01-13T03:40:14.002Z,96.80
2019-01-13T03:41:13.971Z,96.59
2019-01-13T03:42:13.973Z,96.59
2019-01-13T03:43:13.922Z,96.49
2019-01-13T03:44:13.910Z,96.39
2019-01-13T03:45:13.904Z,96.39
2019-01-13T03:46:13.891Z,96.19
2019-01-13T03:47:13.898Z,96.39
2019-01-13T03:48:13.905Z,96.59
2019-01-13T03:49:13.876Z,96.70
2019-01-13T03:50:13.843Z,96.19
2019-01-13T03:51:13.853Z,96.49
2019-01-13T03:52:13.847Z,96.39
2019-01-13T03:53:13.820Z,96.39
2019-01-13T03:54:13.802Z,96.29
2019-01-13T03:55:13.792Z,96.49
2019-01-13T03:56:13.775Z,96.34
2019-01-13T03:57:13.797Z,96.49
2019-01-13T03:58:13.763Z,96.39
2019-01-13T03:59:13.769Z,96.34
2019-01-13T04:00:13.761Z,96.39
2019-01-13T04:01:18.529Z,96.49
2019-01-13T04:02:14.741Z,96.34
2019-01-13T04:03:13.724Z,96.59
2019-01-13T04:04:13.709Z,96.29
2019-01-13T04:05:13.692Z,96.34
2019-01-13T04:06:13.673Z,96.45
2019-01-13T04:07:13.663Z,96.49
2019-01-13T04:08:13.709Z,96.39
2019-01-13T04:09:13.635Z,96.45
2019-01-13T04:10:13.648Z,96.34
2019-01-13T04:11:13.622Z,96.59
2019-01-13T04:12:13.612Z,96.76
2019-01-13T04:13:13.624Z,96.66
2019-01-13T04:14:13.577Z,96.66
2019-01-13T04:15:13.580Z,96.55
2019-01-13T04:16:13.556Z,96.34
2019-01-13T04:17:13.564Z,96.45
2019-01-13T04:18:13.566Z,96.34
2019-01-13T04:19:13.526Z,96.66
2019-01-13T04:20:13.525Z,96.45
2019-01-13T04:21:13.505Z,96.76
2019-01-13T04:22:13.501Z,96.34
2019-01-13T04:23:13.498Z,96.34
2019-01-13T04:24:13.468Z,96.45
2019-01-13T04:25:13.455Z,96.66
2019-01-13T04:26:13.456Z,96.66
2019-01-13T04:27:13.437Z,96.76
2019-01-13T04:28:13.450Z,96.45
2019-01-13T04:29:13.418Z,96.45
2019-01-13T04:30:13.408Z,96.55
2019-01-13T04:31:13.391Z,96.45
2019-01-13T04:32:13.399Z,96.55
2019-01-13T04:33:13.407Z,96.55
2019-01-13T04:34:13.363Z,96.34
2019-01-13T04:35:13.349Z,96.34
2019-01-13T04:36:13.334Z,96.34
2019-01-13T04:37:13.320Z,96.45
2019-01-13T04:38:13.350Z,96.55
2019-01-13T04:39:13.317Z,96.24
2019-01-13T04:40:13.293Z,96.55
2019-01-13T04:41:13.305Z,96.66
2019-01-13T04:42:13.320Z,96.34
2019-01-13T04:43:13.262Z,96.34
2019-01-13T04:44:13.280Z,96.34
2019-01-13T04:45:13.236Z,95.73
2019-01-13T04:46:13.234Z,96.45
2019-01-13T04:47:13.212Z,96.14
2019-01-13T04:48:13.213Z,96.34
2019-01-13T04:49:13.228Z,95.62
2019-01-13T04:50:13.196Z,96.14
2019-01-13T04:51:13.175Z,96.55
2019-01-13T04:52:13.162Z,96.55
2019-01-13T04:53:13.185Z,96.24
2019-01-13T04:54:13.166Z,96.34
2019-01-13T04:55:13.129Z,96.14
2019-01-13T04:56:13.115Z,95.62
2019-01-13T04:57:13.141Z,95.83
2019-01-13T04:58:13.108Z,95.42
2019-01-13T04:59:13.098Z,96.03
2019-01-13T05:00:13.075Z,95.73
2019-01-13T05:01:13.061Z,95.31
2019-01-13T05:02:13.050Z,95.73
2019-01-13T05:03:13.053Z,96.66
2019-01-13T05:04:13.078Z,96.34
2019-01-13T05:05:13.031Z,96.55
2019-01-13T05:06:13.003Z,96.55
2019-01-13T05:07:13.002Z,96.66
2019-01-13T05:08:12.985Z,96.45
2019-01-13T05:09:12.973Z,96.24
2019-01-13T05:10:12.977Z,96.66
2019-01-13T05:11:12.948Z,96.45
2019-01-13T05:12:12.950Z,96.34
2019-01-13T05:13:12.927Z,96.45
2019-01-13T05:14:12.917Z,96.34
2019-01-13T05:15:12.926Z,96.34
2019-01-13T05:16:12.916Z,96.66
2019-01-13T05:17:12.888Z,96.45
2019-01-13T05:18:12.868Z,96.55
2019-01-13T05:19:12.899Z,96.55
2019-01-13T05:20:12.870Z,96.55
2019-01-13T05:21:12.839Z,96.39
2019-01-13T05:22:12.833Z,96.39
2019-01-13T05:23:12.830Z,96.34
2019-01-13T05:24:12.805Z,96.14
2019-01-13T05:25:12.840Z,96.34
2019-01-13T05:26:12.811Z,96.45
2019-01-13T05:27:12.770Z,96.45
2019-01-13T05:28:12.759Z,96.39
2019-01-13T05:29:12.750Z,96.39
2019-01-13T05:30:12.733Z,96.39
2019-01-13T05:31:12.756Z,96.49
2019-01-13T05:32:12.711Z,96.39
2019-01-13T05:33:12.702Z,96.39
2019-01-13T05:34:12.689Z,96.66
2019-01-13T05:35:12.684Z,96.49
2019-01-13T05:36:12.686Z,96.49
2019-01-13T05:37:12.654Z,96.34
2019-01-13T05:38:12.643Z,96.45
2019-01-13T05:39:12.640Z,96.45
2019-01-13T05:40:12.618Z,96.55
2019-01-13T05:41:12.631Z,96.59
2019-01-13T05:42:12.607Z,96.86
2019-01-13T05:43:12.585Z,97.01
2019-01-13T05:44:12.583Z,96.66
2019-01-13T05:45:12.571Z,96.08
2019-01-13T05:46:12.575Z,96.66
2019-01-13T05:47:12.542Z,96.66
2019-01-13T05:48:12.532Z,96.86
2019-01-13T05:49:12.522Z,96.03
2019-01-13T05:50:12.511Z,96.24
2019-01-13T05:51:12.519Z,96.08
2019-01-13T05:52:12.485Z,96.76
2019-01-13T05:53:12.481Z,96.59
2019-01-13T05:54:12.468Z,96.66
2019-01-13T05:55:12.492Z,96.66
2019-01-13T05:56:12.460Z,96.66
2019-01-13T05:57:12.431Z,96.66
2019-01-13T05:58:12.445Z,96.76
2019-01-13T05:59:12.414Z,96.55
2019-01-13T06:00:12.403Z,96.55
2019-01-13T06:01:12.381Z,96.55
2019-01-13T06:02:12.403Z,96.03
2019-01-13T06:03:12.361Z,96.55
2019-01-13T06:04:12.397Z,96.76
2019-01-13T06:05:12.343Z,96.55
2019-01-13T06:06:12.335Z,96.76
2019-01-13T06:07:12.318Z,96.76
2019-01-13T06:08:12.336Z,96.41
2019-01-13T06:09:12.307Z,96.45
2019-01-13T06:10:12.286Z,96.61
2019-01-13T06:11:12.275Z,96.41
2019-01-13T06:12:12.259Z,96.41
2019-01-13T06:13:12.268Z,96.61
2019-01-13T06:14:12.242Z,96.30
2019-01-13T06:15:12.228Z,96.61
2019-01-13T06:16:12.222Z,96.72
2019-01-13T06:17:12.224Z,96.51
2019-01-13T06:18:12.191Z,96.20
2019-01-13T06:19:12.187Z,96.82
2019-01-13T06:20:12.168Z,96.92
2019-01-13T06:21:12.159Z,97.23
2019-01-13T06:22:12.170Z,97.23
2019-01-13T06:23:12.142Z,97.02
2019-01-13T06:24:12.128Z,97.02
2019-01-13T06:25:12.117Z,97.02
2019-01-13T06:26:12.100Z,97.54
2019-01-13T06:27:13.033Z,97.23
2019-01-13T06:28:12.095Z,97.23
2019-01-13T06:29:12.070Z,97.50
2019-01-13T06:30:12.063Z,96.77
2019-01-13T06:31:12.049Z,97.13
2019-01-13T06:32:12.038Z,96.98
2019-01-13T06:33:12.046Z,97.13
2019-01-13T06:34:12.024Z,97.39
2019-01-13T06:35:12.003Z,97.08
2019-01-13T06:36:11.996Z,97.81
2019-01-13T06:37:11.988Z,96.98
2019-01-13T06:38:11.989Z,97.13
2019-01-13T06:39:11.957Z,96.92
2019-01-13T06:40:11.947Z,96.51
2019-01-13T06:41:11.939Z,96.36
2019-01-13T06:42:11.926Z,96.56
2019-01-13T06:43:11.934Z,96.88
2019-01-13T06:44:11.906Z,96.67
2019-01-13T06:45:11.893Z,96.77
2019-01-13T06:46:11.886Z,96.56
2019-01-13T06:47:11.867Z,96.41
2019-01-13T06:48:11.876Z,96.26
2019-01-13T06:49:11.862Z,96.41
2019-01-13T06:50:11.837Z,96.36
2019-01-13T06:51:11.826Z,96.20
2019-01-13T06:52:11.820Z,96.30
2019-01-13T06:53:11.803Z,96.61
2019-01-13T06:54:11.812Z,96.47
2019-01-13T06:55:11.786Z,96.56
2019-01-13T06:56:11.771Z,95.95
2019-01-13T06:57:11.758Z,95.64
2019-01-13T06:58:11.771Z,95.84
2019-01-13T06:59:11.768Z,96.26
2019-01-13T07:00:11.726Z,96.47
2019-01-13T07:01:11.714Z,96.47
2019-01-13T07:02:11.704Z,96.67
2019-01-13T07:03:11.691Z,96.36
2019-01-13T07:04:11.708Z,95.95
2019-01-13T07:05:11.671Z,95.84
2019-01-13T07:06:11.687Z,95.22
2019-01-13T07:07:11.652Z,95.64
2019-01-13T07:08:11.638Z,95.64
2019-01-13T07:09:11.630Z,95.64
2019-01-13T07:10:11.638Z,95.43
2019-01-13T07:11:11.605Z,95.53
2019-01-13T07:12:11.597Z,95.43
2019-01-13T07:13:11.581Z,95.74
2019-01-13T07:14:11.569Z,96.47
2019-01-13T07:15:11.584Z,95.74
2019-01-13T07:16:11.547Z,96.42
2019-01-13T07:17:11.536Z,96.36
2019-01-13T07:18:11.526Z,96.26
2019-01-13T07:19:11.515Z,96.26
2019-01-13T07:20:11.521Z,96.26
2019-01-13T07:21:11.500Z,96.36
2019-01-13T07:22:11.484Z,96.36
2019-01-13T07:23:12.051Z,96.47
2019-01-13T07:24:11.465Z,96.26
2019-01-13T07:25:11.470Z,96.88
2019-01-13T07:26:11.482Z,96.88
2019-01-13T07:27:11.433Z,96.98
2019-01-13T07:28:11.421Z,97.71
2019-01-13T07:29:11.410Z,97.60
2019-01-13T07:30:11.398Z,98.01
2019-01-13T07:31:11.400Z,98.11
2019-01-13T07:32:11.378Z,98.32
2019-01-13T07:33:11.360Z,98.63
2019-01-13T07:34:11.355Z,98.63
2019-01-13T07:35:11.345Z,98.32
2019-01-13T07:36:11.343Z,98.43
2019-01-13T07:37:11.316Z,98.53
2019-01-13T07:38:11.306Z,98.94
2019-01-13T07:39:11.293Z,98.94
2019-01-13T07:40:11.289Z,98.94
2019-01-13T07:41:11.303Z,98.84
2019-01-13T07:42:11.259Z,98.94
2019-01-13T07:43:11.252Z,99.35
2019-01-13T07:44:11.249Z,99.25
2019-01-13T07:45:11.227Z,99.56
2019-01-13T07:46:11.246Z,99.35
2019-01-13T07:47:11.206Z,99.35
2019-01-13T07:48:11.212Z,99.35
2019-01-13T07:49:11.187Z,99.77
2019-01-13T07:50:11.173Z,99.77
2019-01-13T07:51:11.186Z,99.46
2019-01-13T07:52:11.158Z,99.87
2019-01-13T07:53:11.145Z,99.66
2019-01-13T07:54:11.130Z,99.87
2019-01-13T07:55:11.118Z,99.56
2019-01-13T07:56:11.133Z,99.77
2019-01-13T07:57:11.107Z,99.66
2019-01-13T07:58:11.084Z,99.99
2019-01-13T07:59:11.079Z,99.66
2019-01-13T08:00:11.062Z,99.25
2019-01-13T08:01:11.074Z,99.87
2019-01-13T08:02:17.671Z,99.99
2019-01-13T08:03:12.029Z,99.82
2019-01-13T08:04:11.018Z,99.87
2019-01-13T08:05:11.007Z,99.98
2019-01-13T08:06:10.995Z,99.99
2019-01-13T08:07:11.003Z,99.99
2019-01-13T08:08:10.988Z,99.99
2019-01-13T08:09:10.972Z,99.46
2019-01-13T08:10:10.952Z,99.41
2019-01-13T08:11:10.942Z,99.87
2019-01-13T08:12:10.962Z,99.98
2019-01-13T08:13:10.925Z,99.98
2019-01-13T08:14:10.913Z,99.82
2019-01-13T08:15:10.899Z,99.99
2019-01-13T08:16:10.905Z,99.99
2019-01-13T08:17:10.903Z,99.87
2019-01-13T08:18:10.879Z,99.66
2019-01-13T08:19:10.855Z,99.99
2019-01-13T08:20:10.839Z,99.99
2019-01-13T08:21:10.856Z,99.99
2019-01-13T08:22:10.850Z,99.99
2019-01-13T08:23:10.820Z,99.93
2019-01-13T08:24:10.805Z,99.99
2019-01-13T08:25:10.799Z,99.99
2019-01-13T08:26:10.784Z,99.77
2019-01-13T08:27:10.772Z,99.99
2019-01-13T08:28:10.815Z,99.99
2019-01-13T08:29:10.745Z,99.99
2019-01-13T08:30:10.748Z,99.82
2019-01-13T08:31:10.728Z,99.99
2019-01-13T08:32:10.726Z,99.56
2019-01-13T08:33:10.723Z,99.99
2019-01-13T08:34:10.683Z,99.99
2019-01-13T08:35:10.680Z,99.99
2019-01-13T08:36:10.683Z,99.99
2019-01-13T08:37:10.652Z,99.99
2019-01-13T08:38:10.672Z,99.99
2019-01-13T08:39:10.630Z,99.99
2019-01-13T08:40:10.630Z,99.99
2019-01-13T08:41:10.608Z,99.99
2019-01-13T08:42:10.605Z,99.99
2019-01-13T08:43:10.606Z,99.93
2019-01-13T08:44:10.571Z,99.93
2019-01-13T08:45:10.571Z,99.99
2019-01-13T08:46:10.560Z,99.99
2019-01-13T08:47:10.542Z,99.72
2019-01-13T08:48:10.605Z,99.99
2019-01-13T08:49:10.531Z,99.99
2019-01-13T08:50:10.511Z,99.99
2019-01-13T08:51:10.495Z,99.99
2019-01-13T08:52:10.488Z,99.99
2019-01-13T08:53:10.482Z,99.99
2019-01-13T08:54:10.493Z,99.99
2019-01-13T08:55:10.469Z,99.99
2019-01-13T08:56:10.459Z,99.99
2019-01-13T08:57:10.429Z,99.99
2019-01-13T08:58:10.440Z,99.99
2019-01-13T08:59:10.423Z,99.99
2019-01-13T09:00:10.396Z,99.99
2019-01-13T09:01:10.387Z,99.99
2019-01-13T09:02:10.380Z,99.99
2019-01-13T09:03:10.386Z,99.99
2019-01-13T09:04:10.372Z,99.99
2019-01-13T09:05:10.343Z,99.99
2019-01-13T09:06:10.334Z,99.99
2019-01-13T09:07:10.334Z,99.99
2019-01-13T09:08:10.310Z,99.99
2019-01-13T09:09:10.329Z,99.99
2019-01-13T09:10:10.301Z,99.99
2019-01-13T09:11:10.292Z,99.99
2019-01-13T09:12:10.271Z,99.99
2019-01-13T09:13:10.323Z,99.99
2019-01-13T09:14:10.280Z,99.99
2019-01-13T09:15:10.239Z,99.99
2019-01-13T09:16:10.226Z,99.99
2019-01-13T09:17:10.212Z,99.99
2019-01-13T09:18:10.198Z,99.99
2019-01-13T09:19:10.217Z,99.99
2019-01-13T09:20:10.194Z,99.99
2019-01-13T09:21:10.166Z,99.99
2019-01-13T09:22:10.154Z,99.99
2019-01-13T09:23:10.153Z,99.99
2019-01-13T09:24:10.135Z,99.99
2019-01-13T09:25:10.148Z,99.99
2019-01-13T09:26:10.117Z,99.99
2019-01-13T09:27:10.106Z,99.99
2019-01-13T09:28:10.095Z,99.99
2019-01-13T09:29:10.077Z,99.99
2019-01-13T09:30:10.204Z,99.99
2019-01-13T09:31:10.060Z,99.99
2019-01-13T09:32:10.045Z,99.99
2019-01-13T09:33:10.033Z,99.99
2019-01-13T09:34:10.035Z,99.99
2019-01-13T09:35:10.014Z,99.99
2019-01-13T09:36:10.033Z,99.99
2019-01-13T09:37:09.989Z,99.99
2019-01-13T09:38:09.991Z,99.99
2019-01-13T09:39:09.982Z,99.99
2019-01-13T09:40:09.972Z,99.99
2019-01-13T09:41:09.965Z,99.99
2019-01-13T09:42:09.959Z,99.99
2019-01-13T09:43:09.930Z,99.99
2019-01-13T09:44:09.923Z,99.99
2019-01-13T09:45:09.923Z,99.99
2019-01-13T09:46:09.914Z,99.99
2019-01-13T09:47:09.886Z,99.99
2019-01-13T09:48:09.894Z,99.99
2019-01-13T09:49:09.881Z,99.99
2019-01-13T09:50:09.849Z,99.99
2019-01-13T09:51:09.850Z,99.99
2019-01-13T09:52:09.839Z,99.99
2019-01-13T09:53:09.827Z,99.99
2019-01-13T09:54:09.821Z,99.99
2019-01-13T09:55:09.792Z,99.99
2019-01-13T09:56:09.806Z,99.99
2019-01-13T09:57:09.795Z,99.99
2019-01-13T09:58:09.752Z,99.99
2019-01-13T09:59:09.751Z,99.99
2019-01-13T10:00:09.744Z,99.99
2019-01-13T10:01:09.720Z,99.99
2019-01-13T10:02:09.725Z,99.99
2019-01-13T10:03:09.702Z,99.99
2019-01-13T10:04:09.709Z,99.99
2019-01-13T10:05:09.677Z,99.99
2019-01-13T10:06:09.677Z,99.99
2019-01-13T10:07:09.720Z,99.99
2019-01-13T10:08:09.668Z,99.99
2019-01-13T10:09:09.654Z,99.63
2019-01-13T10:10:09.624Z,99.99
2019-01-13T10:11:09.619Z,99.99
2019-01-13T10:12:09.624Z,99.99
2019-01-13T10:13:09.692Z,99.99
2019-01-13T10:14:09.584Z,99.99
2019-01-13T10:15:09.574Z,99.99
2019-01-13T10:16:09.560Z,99.99
2019-01-13T10:17:09.623Z,99.99
2019-01-13T10:18:09.534Z,99.99
2019-01-13T10:19:09.556Z,99.99
2019-01-13T10:20:09.523Z,99.99
2019-01-13T10:21:09.518Z,99.99
2019-01-13T10:22:09.495Z,99.99
2019-01-13T10:23:09.515Z,99.99
2019-01-13T10:24:09.488Z,99.99
2019-01-13T10:25:09.457Z,99.84
2019-01-13T10:26:09.453Z,99.99
2019-01-13T10:27:09.441Z,99.99
2019-01-13T10:28:09.486Z,99.84
2019-01-13T10:29:09.416Z,99.99
2019-01-13T10:30:09.400Z,99.99
2019-01-13T10:31:09.431Z,99.94
2019-01-13T10:32:09.401Z,99.99
2019-01-13T10:33:09.403Z,99.99
2019-01-13T10:34:09.358Z,99.99
2019-01-13T10:35:09.365Z,99.99
2019-01-13T10:36:09.362Z,99.99
2019-01-13T10:37:09.326Z,99.99
2019-01-13T10:38:09.352Z,99.94
2019-01-13T10:39:09.306Z,99.99
2019-01-13T10:40:09.318Z,99.90
2019-01-13T10:41:09.289Z,99.99
2019-01-13T10:42:09.273Z,99.99
2019-01-13T10:43:09.263Z,99.99
2019-01-13T10:44:09.278Z,99.99
2019-01-13T10:45:09.247Z,99.38
2019-01-13T10:46:09.243Z,99.69
2019-01-13T10:47:09.227Z,99.99
2019-01-13T10:48:09.218Z,99.99
2019-01-13T10:49:09.225Z,99.99
2019-01-13T10:50:09.196Z,99.90
2019-01-13T10:51:09.200Z,99.99
2019-01-13T10:52:09.169Z,99.90
2019-01-13T10:53:09.172Z,99.99
2019-01-13T10:54:09.516Z,99.99
2019-01-13T10:55:09.129Z,99.90
2019-01-13T10:56:09.201Z,99.99
2019-01-13T10:57:09.121Z,99.99
2019-01-13T10:58:09.116Z,99.99
2019-01-13T10:59:09.116Z,99.99
2019-01-13T11:00:09.088Z,99.99
2019-01-13T11:01:09.070Z,99.99
2019-01-13T11:02:09.072Z,99.99
2019-01-13T11:03:09.036Z,99.99
2019-01-13T11:04:09.060Z,99.99
2019-01-13T11:05:09.014Z,99.99
2019-01-13T11:06:09.002Z,99.99
2019-01-13T11:07:09.017Z,99.99
2019-01-13T11:08:11.684Z,99.99
2019-01-13T11:09:08.999Z,99.99
2019-01-13T11:10:08.964Z,99.99
2019-01-13T11:11:08.963Z,99.99
2019-01-13T11:12:08.945Z,99.99
2019-01-13T11:13:08.927Z,99.99
2019-01-13T11:14:08.950Z,99.99
2019-01-13T11:15:08.976Z,99.99
2019-01-13T11:16:08.907Z,99.99
2019-01-13T11:17:08.910Z,99.99
2019-01-13T11:18:08.878Z,99.99
2019-01-13T11:19:08.869Z,99.99
2019-01-13T11:20:08.878Z,99.99
2019-01-13T11:21:08.872Z,99.99
2019-01-13T11:22:08.829Z,99.99
2019-01-13T11:23:08.860Z,99.99
2019-01-13T11:24:08.816Z,99.99
2019-01-13T11:25:08.800Z,99.99
2019-01-13T11:26:08.800Z,99.99
2019-01-13T11:27:08.793Z,99.99
2019-01-13T11:28:08.774Z,99.99
2019-01-13T11:29:08.754Z,99.99
2019-01-13T11:30:08.749Z,99.99
2019-01-13T11:31:08.748Z,99.64
2019-01-13T11:32:08.724Z,99.54
2019-01-13T11:33:09.719Z,99.74
2019-01-13T11:34:08.709Z,99.74
2019-01-13T11:35:08.687Z,99.64
2019-01-13T11:36:08.690Z,99.85
2019-01-13T11:37:08.658Z,99.43
2019-01-13T11:38:08.663Z,99.43
2019-01-13T11:39:08.655Z,99.43
2019-01-13T11:40:08.647Z,99.39
2019-01-13T11:41:08.637Z,99.60
2019-01-13T11:42:08.666Z,99.13
2019-01-13T11:43:08.611Z,99.60
2019-01-13T11:44:08.595Z,99.90
2019-01-13T11:45:08.579Z,99.60
2019-01-13T11:46:08.593Z,99.39
2019-01-13T11:47:08.561Z,99.60
2019-01-13T11:48:08.553Z,99.99
2019-01-13T11:49:08.548Z,99.99
2019-01-13T11:50:08.523Z,99.70
2019-01-13T11:51:08.531Z,99.85
2019-01-13T11:52:08.525Z,99.99
2019-01-13T11:53:08.502Z,99.99
2019-01-13T11:54:08.495Z,99.70
2019-01-13T11:55:08.466Z,99.99
2019-01-13T11:56:08.461Z,99.99
2019-01-13T11:57:08.467Z,99.99
2019-01-13T11:58:08.438Z,99.99
2019-01-13T11:59:08.449Z,99.99
2019-01-13T12:00:08.437Z,99.99
2019-01-13T12:01:08.405Z,99.99
2019-01-13T12:02:08.412Z,99.99
2019-01-13T12:03:08.378Z,99.99
2019-01-13T12:04:08.385Z,99.99
2019-01-13T12:05:08.368Z,99.99
2019-01-13T12:06:08.345Z,99.99
2019-01-13T12:07:08.350Z,99.99
2019-01-13T12:08:08.328Z,99.99
2019-01-13T12:09:08.312Z,99.99
2019-01-13T12:10:08.328Z,99.99
2019-01-13T12:11:08.309Z,99.99
2019-01-13T12:12:08.299Z,99.99
2019-01-13T12:13:08.294Z,99.99
2019-01-13T12:14:08.263Z,99.99
2019-01-13T12:15:08.263Z,99.99
2019-01-13T12:16:08.270Z,99.99
2019-01-13T12:17:08.235Z,99.99
2019-01-13T12:18:08.257Z,99.99
2019-01-13T12:19:08.256Z,99.99
2019-01-13T12:20:08.210Z,99.99
2019-01-13T12:21:08.195Z,99.99
2019-01-13T12:22:08.169Z,99.99
2019-01-13T12:23:08.181Z,99.99
2019-01-13T12:24:08.145Z,99.99
2019-01-13T12:25:08.129Z,99.99
2019-01-13T12:26:08.129Z,99.99
2019-01-13T12:27:08.111Z,99.99
2019-01-13T12:28:08.124Z,99.99
2019-01-13T12:29:08.139Z,99.99
2019-01-13T12:30:08.080Z,99.99
2019-01-13T12:31:08.062Z,99.99
2019-01-13T12:32:08.059Z,99.99
2019-01-13T12:33:08.069Z,99.99
2019-01-13T12:34:08.044Z,99.99
2019-01-13T12:35:08.028Z,99.99
2019-01-13T12:36:08.018Z,99.99
2019-01-13T12:37:08.538Z,99.99
2019-01-13T12:38:08.033Z,99.99
2019-01-13T12:39:07.996Z,99.99
2019-01-13T12:40:07.993Z,99.99
2019-01-13T12:41:07.960Z,99.99
2019-01-13T12:42:07.977Z,99.99
2019-01-13T12:43:07.963Z,99.99
2019-01-13T12:44:07.922Z,99.99
2019-01-13T12:45:07.909Z,99.99
2019-01-13T12:46:07.960Z,99.99
2019-01-13T12:47:07.887Z,99.99
2019-01-13T12:48:07.923Z,99.99
2019-01-13T12:49:07.892Z,99.99
2019-01-13T12:50:07.889Z,99.99
2019-01-13T12:51:07.849Z,99.99
2019-01-13T12:52:07.868Z,99.99